createdAt,value
2023-04-02T00:00:00.120Z,223.86
2023-04-02T00:01:00.144Z,226.35
2023-04-02T00:02:00.264Z,226.58
2023-04-02T00:03:00.396Z,227.06
2023-04-02T00:04:00.271Z,228.12
2023-04-02T00:05:00.342Z,228.11
2023-04-02T00:06:00.427Z,228.97
2023-04-02T00:07:00.470Z,228.97
2023-04-02T00:08:00.468Z,226.80
2023-04-02T00:09:00.494Z,226.43
2023-04-02T00:10:00.518Z,226.32
2023-04-02T00:11:00.541Z,226.93
2023-04-02T00:12:00.588Z,226.46
2023-04-02T00:13:00.583Z,228.54
2023-04-02T00:14:00.630Z,230.63
2023-04-02T00:15:00.644Z,232.25
2023-04-02T00:16:00.697Z,234.68
2023-04-02T00:17:00.705Z,236.49
2023-04-02T00:18:00.766Z,237.89
2023-04-02T00:19:01.536Z,238.28
2023-04-02T00:20:00.772Z,238.33
2023-04-02T00:21:00.830Z,239.53
2023-04-02T00:22:00.890Z,238.97
2023-04-02T00:23:00.913Z,238.98
2023-04-02T00:24:00.928Z,236.99
2023-04-02T00:25:00.981Z,234.71
2023-04-02T00:26:01.004Z,232.92
2023-04-02T00:27:01.054Z,230.43
2023-04-02T00:28:01.122Z,224.26
2023-04-02T00:29:01.115Z,222.45
2023-04-02T00:30:01.128Z,220.03
2023-04-02T00:31:01.149Z,219.01
2023-04-02T00:32:01.254Z,218.20
2023-04-02T00:33:01.229Z,217.36
2023-04-02T00:34:01.237Z,215.79
2023-04-02T00:35:01.266Z,215.94
2023-04-02T00:36:01.292Z,216.32
2023-04-02T00:37:01.289Z,215.52
2023-04-02T00:38:01.380Z,215.04
2023-04-02T00:39:01.465Z,215.47
2023-04-02T00:40:01.489Z,216.16
2023-04-02T00:41:01.583Z,217.97
2023-04-02T00:42:01.662Z,220.23
2023-04-02T00:43:01.765Z,221.35
2023-04-02T00:44:01.853Z,221.03
2023-04-02T00:45:01.900Z,219.50
2023-04-02T00:46:01.970Z,217.51
2023-04-02T00:47:02.014Z,216.57
2023-04-02T00:48:02.126Z,217.26
2023-04-02T00:49:02.274Z,219.60
2023-04-02T00:50:02.254Z,220.92
2023-04-02T00:51:02.328Z,223.53
2023-04-02T00:52:02.389Z,224.76
2023-04-02T00:53:02.428Z,227.53
2023-04-02T00:54:02.506Z,229.01
2023-04-02T00:55:02.529Z,230.12
2023-04-02T00:56:02.603Z,231.62
2023-04-02T00:57:02.660Z,231.65
2023-04-02T00:58:02.713Z,233.19
2023-04-02T00:59:02.725Z,233.98
2023-04-02T01:00:02.782Z,234.63
2023-04-02T01:01:02.916Z,234.77
2023-04-02T01:02:02.914Z,233.85
2023-04-02T01:03:03.026Z,234.12
2023-04-02T01:04:03.217Z,233.39
2023-04-02T01:05:03.166Z,233.73
2023-04-02T01:06:03.243Z,232.76
2023-04-02T01:07:03.302Z,233.29
2023-04-02T01:08:03.409Z,233.76
2023-04-02T01:09:03.472Z,233.42
2023-04-02T01:10:03.544Z,234.10
2023-04-02T01:11:03.645Z,233.49
2023-04-02T01:12:03.720Z,233.76
2023-04-02T01:13:03.814Z,232.36
2023-04-02T01:14:03.921Z,231.10
2023-04-02T01:15:04.059Z,228.14
2023-04-02T01:16:04.109Z,224.44
2023-04-02T01:17:04.158Z,222.01
2023-04-02T01:18:04.326Z,220.75
2023-04-02T01:19:04.333Z,219.80
2023-04-02T01:20:04.443Z,220.44
2023-04-02T01:21:04.488Z,222.44
2023-04-02T01:22:04.577Z,223.74
2023-04-02T01:23:04.659Z,222.12
2023-04-02T01:24:04.726Z,221.00
2023-04-02T01:25:04.762Z,222.07
2023-04-02T01:26:04.803Z,223.50
2023-04-02T01:27:04.873Z,223.99
2023-04-02T01:28:04.965Z,224.96
2023-04-02T01:29:05.070Z,225.63
2023-04-02T01:30:05.147Z,225.30
2023-04-02T01:31:05.277Z,224.42
2023-04-02T01:32:05.305Z,224.82
2023-04-02T01:33:05.434Z,227.11
2023-04-02T01:34:05.485Z,227.71
2023-04-02T01:35:05.561Z,228.93
2023-04-02T01:36:05.645Z,231.22
2023-04-02T01:37:05.692Z,229.87
2023-04-02T01:38:05.767Z,226.92
2023-04-02T01:39:05.811Z,227.48
2023-04-02T01:40:05.931Z,228.79
2023-04-02T01:41:05.953Z,228.23
2023-04-02T01:42:05.980Z,229.95
2023-04-02T01:43:06.038Z,231.46
2023-04-02T01:44:06.118Z,233.53
2023-04-02T01:45:06.199Z,234.99
2023-04-02T01:46:06.274Z,236.29
2023-04-02T01:47:06.342Z,236.49
2023-04-02T01:48:06.427Z,236.28
2023-04-02T01:49:06.571Z,234.25
2023-04-02T01:50:06.544Z,234.68
2023-04-02T01:51:06.612Z,235.85
2023-04-02T01:52:06.652Z,236.38
2023-04-02T01:53:06.712Z,236.69
2023-04-02T01:54:06.756Z,237.71
2023-04-02T01:55:06.804Z,239.14
2023-04-02T01:56:06.898Z,239.59
2023-04-02T01:57:07.055Z,237.37
2023-04-02T01:58:07.076Z,237.01
2023-04-02T01:59:07.138Z,237.30
2023-04-02T02:00:07.258Z,237.33
2023-04-02T02:01:07.340Z,238.03
2023-04-02T02:02:07.421Z,240.17
2023-04-02T02:03:07.525Z,238.01
2023-04-02T02:04:07.489Z,237.95
2023-04-02T02:05:07.560Z,237.96
2023-04-02T02:06:07.567Z,238.05
2023-04-02T02:07:07.597Z,238.39
2023-04-02T02:08:08.546Z,237.38
2023-04-02T02:09:08.546Z,237.95
2023-04-02T02:10:07.736Z,240.00
2023-04-02T02:11:07.732Z,241.08
2023-04-02T02:12:07.740Z,240.75
2023-04-02T02:13:07.769Z,241.15
2023-04-02T02:14:07.802Z,243.54
2023-04-02T02:15:07.814Z,246.70
2023-04-02T02:16:07.908Z,249.15
2023-04-02T02:17:07.883Z,249.61
2023-04-02T02:18:07.919Z,248.73
2023-04-02T02:19:08.537Z,247.31
2023-04-02T02:20:07.976Z,247.17
2023-04-02T02:21:07.995Z,248.06
2023-04-02T02:22:08.058Z,249.03
2023-04-02T02:23:08.064Z,249.61
2023-04-02T02:24:08.136Z,248.74
2023-04-02T02:25:08.201Z,247.97
2023-04-02T02:26:09.051Z,245.75
2023-04-02T02:27:08.317Z,241.04
2023-04-02T02:28:08.313Z,238.82
2023-04-02T02:29:08.390Z,234.99
2023-04-02T02:30:08.492Z,230.76
2023-04-02T02:31:09.047Z,229.35
2023-04-02T02:32:08.654Z,230.19
2023-04-02T02:33:08.628Z,230.86
2023-04-02T02:34:08.672Z,231.39
2023-04-02T02:35:08.767Z,232.06
2023-04-02T02:36:08.827Z,233.73
2023-04-02T02:37:08.934Z,235.18
2023-04-02T02:38:08.947Z,241.61
2023-04-02T02:39:09.576Z,241.96
2023-04-02T02:40:08.983Z,243.69
2023-04-02T02:41:09.025Z,246.63
2023-04-02T02:42:09.564Z,250.75
2023-04-02T02:43:09.061Z,254.85
2023-04-02T02:44:10.265Z,246.98
2023-04-02T02:45:09.086Z,245.18
2023-04-02T02:46:09.115Z,244.85
2023-04-02T02:47:09.203Z,244.05
2023-04-02T02:48:09.161Z,244.56
2023-04-02T02:49:09.180Z,246.17
2023-04-02T02:50:09.337Z,249.25
2023-04-02T02:51:09.244Z,248.24
2023-04-02T02:52:10.049Z,247.18
2023-04-02T02:53:09.309Z,246.73
2023-04-02T02:54:09.583Z,246.89
2023-04-02T02:55:09.438Z,248.24
2023-04-02T02:56:09.484Z,248.98
2023-04-02T02:57:10.564Z,249.94
2023-04-02T02:58:10.548Z,250.00
2023-04-02T02:59:09.757Z,250.00
2023-04-02T03:00:09.868Z,249.44
2023-04-02T03:01:09.987Z,250.00
2023-04-02T03:02:10.009Z,250.11
2023-04-02T03:03:10.169Z,249.82
2023-04-02T03:04:10.266Z,249.76
2023-04-02T03:05:10.294Z,245.44
2023-04-02T03:06:10.351Z,245.13
2023-04-02T03:07:10.424Z,247.33
2023-04-02T03:08:10.549Z,248.01
2023-04-02T03:09:10.679Z,248.09
2023-04-02T03:10:10.742Z,248.80
2023-04-02T03:11:10.758Z,248.69
2023-04-02T03:12:11.554Z,249.00
2023-04-02T03:13:10.781Z,248.69
2023-04-02T03:14:10.854Z,247.26
2023-04-02T03:15:10.877Z,247.73
2023-04-02T03:16:10.906Z,248.04
2023-04-02T03:17:10.876Z,248.60
2023-04-02T03:18:10.910Z,249.62
2023-04-02T03:19:10.925Z,249.28
2023-04-02T03:20:10.955Z,248.69
2023-04-02T03:21:11.006Z,248.44
2023-04-02T03:22:11.030Z,246.14
2023-04-02T03:23:11.044Z,243.54
2023-04-02T03:24:11.065Z,243.65
2023-04-02T03:25:11.114Z,243.81
2023-04-02T03:26:11.152Z,243.80
2023-04-02T03:27:11.136Z,242.62
2023-04-02T03:28:11.170Z,240.80
2023-04-02T03:29:11.192Z,238.76
2023-04-02T03:30:12.102Z,239.02
2023-04-02T03:31:11.343Z,237.46
2023-04-02T03:32:11.260Z,235.14
2023-04-02T03:33:11.290Z,234.51
2023-04-02T03:34:11.343Z,231.04
2023-04-02T03:35:11.354Z,228.72
2023-04-02T03:36:11.416Z,224.79
2023-04-02T03:37:11.481Z,226.35
2023-04-02T03:38:11.537Z,227.13
2023-04-02T03:39:11.563Z,228.03
2023-04-02T03:40:12.048Z,228.08
2023-04-02T03:41:11.578Z,229.34
2023-04-02T03:42:11.606Z,229.21
2023-04-02T03:43:12.548Z,228.77
2023-04-02T03:44:11.681Z,230.65
2023-04-02T03:45:11.715Z,231.96
2023-04-02T03:46:12.145Z,232.36
2023-04-02T03:47:11.750Z,232.74
2023-04-02T03:48:11.858Z,232.05
2023-04-02T03:49:13.570Z,231.86
2023-04-02T03:50:11.857Z,231.56
2023-04-02T03:51:11.893Z,231.42
2023-04-02T03:52:12.050Z,232.93
2023-04-02T03:53:12.030Z,233.98
2023-04-02T03:54:12.037Z,235.38
2023-04-02T03:55:12.104Z,236.04
2023-04-02T03:56:12.145Z,237.70
2023-04-02T03:57:12.239Z,239.06
2023-04-02T03:58:13.357Z,241.01
2023-04-02T03:59:12.392Z,242.02
2023-04-02T04:00:12.560Z,242.17
2023-04-02T04:01:12.581Z,241.36
2023-04-02T04:02:12.691Z,241.03
2023-04-02T04:03:12.782Z,238.44
2023-04-02T04:04:12.824Z,232.90
2023-04-02T04:05:12.841Z,224.67
2023-04-02T04:06:12.907Z,218.21
2023-04-02T04:07:12.939Z,211.30
2023-04-02T04:08:13.023Z,210.42
2023-04-02T04:09:13.121Z,217.86
2023-04-02T04:10:13.204Z,220.40
2023-04-02T04:11:13.334Z,220.50
2023-04-02T04:12:13.358Z,221.50
2023-04-02T04:13:13.433Z,223.06
2023-04-02T04:14:13.581Z,226.25
2023-04-02T04:15:13.625Z,229.15
2023-04-02T04:16:13.803Z,228.32
2023-04-02T04:17:13.903Z,232.19
2023-04-02T04:18:13.919Z,235.09
2023-04-02T04:19:13.991Z,235.59
2023-04-02T04:20:14.080Z,235.91
2023-04-02T04:21:14.127Z,236.08
2023-04-02T04:22:14.137Z,236.70
2023-04-02T04:23:14.201Z,235.69
2023-04-02T04:24:14.240Z,235.76
2023-04-02T04:25:14.303Z,235.02
2023-04-02T04:26:14.374Z,234.22
2023-04-02T04:27:15.063Z,234.13
2023-04-02T04:28:14.472Z,233.16
2023-04-02T04:29:14.535Z,230.37
2023-04-02T04:30:14.626Z,223.41
2023-04-02T04:31:14.735Z,220.27
2023-04-02T04:32:14.725Z,222.40
2023-04-02T04:33:15.738Z,223.14
2023-04-02T04:34:14.821Z,222.44
2023-04-02T04:35:14.888Z,222.27
2023-04-02T04:36:14.970Z,224.59
2023-04-02T04:37:14.973Z,226.22
2023-04-02T04:38:15.019Z,227.85
2023-04-02T04:39:15.073Z,230.24
2023-04-02T04:40:16.076Z,232.34
2023-04-02T04:41:15.163Z,229.60
2023-04-02T04:42:15.236Z,232.13
2023-04-02T04:43:15.327Z,233.40
2023-04-02T04:44:16.095Z,230.88
2023-04-02T04:45:15.382Z,229.47
2023-04-02T04:46:15.553Z,227.08
2023-04-02T04:47:15.591Z,224.76
2023-04-02T04:48:15.556Z,225.85
2023-04-02T04:49:15.638Z,226.08
2023-04-02T04:50:15.697Z,227.09
2023-04-02T04:51:15.697Z,227.24
2023-04-02T04:52:15.776Z,227.22
2023-04-02T04:53:15.807Z,227.32
2023-04-02T04:54:15.833Z,228.51
2023-04-02T04:55:15.983Z,229.56
2023-04-02T04:56:19.257Z,230.68
2023-04-02T04:57:16.021Z,231.22
2023-04-02T04:58:16.022Z,230.80
2023-04-02T04:59:16.078Z,231.55
2023-04-02T05:00:16.081Z,232.43
2023-04-02T05:01:16.199Z,232.31
2023-04-02T05:02:16.174Z,232.15
2023-04-02T05:03:16.198Z,233.20
2023-04-02T05:04:16.287Z,234.97
2023-04-02T05:05:16.274Z,235.27
2023-04-02T05:06:16.304Z,236.52
2023-04-02T05:07:16.341Z,237.78
2023-04-02T05:08:16.378Z,238.97
2023-04-02T05:09:16.428Z,239.35
2023-04-02T05:10:16.480Z,241.09
2023-04-02T05:11:16.481Z,240.20
2023-04-02T05:12:16.519Z,240.05
2023-04-02T05:13:16.555Z,239.66
2023-04-02T05:14:16.579Z,239.93
2023-04-02T05:15:16.613Z,240.02
2023-04-02T05:16:16.683Z,240.61
2023-04-02T05:17:16.666Z,241.78
2023-04-02T05:18:16.705Z,242.93
2023-04-02T05:19:16.736Z,244.94
2023-04-02T05:20:16.755Z,245.29
2023-04-02T05:21:16.796Z,243.83
2023-04-02T05:22:17.083Z,243.82
2023-04-02T05:23:16.978Z,244.68
2023-04-02T05:24:16.915Z,246.25
2023-04-02T05:25:16.975Z,247.18
2023-04-02T05:26:17.568Z,248.21
2023-04-02T05:27:17.092Z,245.93
2023-04-02T05:28:17.122Z,246.30
2023-04-02T05:29:18.079Z,245.69
2023-04-02T05:30:18.166Z,243.47
2023-04-02T05:31:17.487Z,243.33
2023-04-02T05:32:17.472Z,244.08
2023-04-02T05:33:17.566Z,244.87
2023-04-02T05:34:17.630Z,247.98
2023-04-02T05:35:17.713Z,250.00
2023-04-02T05:36:17.803Z,250.51
2023-04-02T05:37:17.908Z,249.96
2023-04-02T05:38:17.929Z,249.50
2023-04-02T05:39:18.034Z,248.52
2023-04-02T05:40:18.129Z,246.83
2023-04-02T05:41:18.205Z,245.80
2023-04-02T05:42:18.265Z,246.11
2023-04-02T05:43:18.311Z,247.02
2023-04-02T05:44:18.385Z,247.51
2023-04-02T05:45:18.424Z,247.56
2023-04-02T05:46:18.469Z,247.74
2023-04-02T05:47:18.443Z,248.11
2023-04-02T05:48:18.457Z,248.94
2023-04-02T05:49:18.485Z,251.56
2023-04-02T05:50:18.523Z,249.86
2023-04-02T05:51:18.525Z,249.89
2023-04-02T05:52:18.571Z,249.88
2023-04-02T05:53:18.575Z,249.89
2023-04-02T05:54:18.574Z,250.81
2023-04-02T05:55:18.600Z,254.58
2023-04-02T05:56:18.594Z,256.17
2023-04-02T05:57:19.358Z,255.47
2023-04-02T05:59:18.645Z,258.38
2023-04-02T06:00:19.565Z,252.24
2023-04-02T06:01:18.669Z,247.21
2023-04-02T06:02:18.761Z,243.27
2023-04-02T06:03:18.767Z,241.85
2023-04-02T06:04:18.744Z,241.63
2023-04-02T06:05:18.753Z,239.92
2023-04-02T06:06:18.798Z,239.13
2023-04-02T06:07:18.799Z,235.38
2023-04-02T06:08:18.817Z,228.49
2023-04-02T06:09:18.823Z,225.44
2023-04-02T06:10:18.826Z,223.69
2023-04-02T06:11:18.840Z,222.48
2023-04-02T06:12:18.859Z,222.07
2023-04-02T06:13:18.834Z,219.08
2023-04-02T06:14:18.842Z,215.48
2023-04-02T06:15:18.880Z,212.14
2023-04-02T06:16:18.876Z,211.08
2023-04-02T06:17:18.886Z,212.59
2023-04-02T06:18:18.902Z,216.14
2023-04-02T06:19:18.906Z,218.66
2023-04-02T06:20:18.912Z,225.02
2023-04-02T06:21:18.910Z,232.72
2023-04-02T06:22:18.919Z,235.30
2023-04-02T06:23:18.981Z,231.05
2023-04-02T06:24:18.916Z,226.02
2023-04-02T06:25:18.924Z,224.43
2023-04-02T06:26:18.948Z,222.21
2023-04-02T06:27:18.954Z,221.93
2023-04-02T06:28:19.032Z,223.06
2023-04-02T06:29:18.993Z,222.71
2023-04-02T06:30:19.006Z,221.41
2023-04-02T06:31:19.043Z,217.39
2023-04-02T06:32:19.068Z,215.87
2023-04-02T06:33:19.097Z,220.00
2023-04-02T06:34:19.102Z,222.07
2023-04-02T06:35:19.306Z,219.76
2023-04-02T06:36:19.154Z,218.12
2023-04-02T06:37:19.142Z,219.40
2023-04-02T06:38:19.184Z,224.77
2023-04-02T06:39:19.261Z,230.43
2023-04-02T06:40:19.333Z,232.25
2023-04-02T06:41:19.399Z,234.92
2023-04-02T06:42:19.479Z,234.18
2023-04-02T06:43:19.514Z,220.86
2023-04-02T06:44:19.587Z,214.17
2023-04-02T06:45:19.610Z,210.80
2023-04-02T06:46:19.650Z,207.82
2023-04-02T06:47:19.679Z,213.70
2023-04-02T06:48:19.695Z,220.13
2023-04-02T06:49:19.712Z,217.38
2023-04-02T06:50:19.717Z,213.42
2023-04-02T06:51:19.716Z,213.84
2023-04-02T06:52:19.747Z,217.75
2023-04-02T06:53:19.759Z,220.19
2023-04-02T06:54:19.753Z,216.30
2023-04-02T06:55:19.845Z,213.29
2023-04-02T06:56:19.807Z,211.68
2023-04-02T06:57:19.829Z,211.50
2023-04-02T06:58:19.832Z,210.19
2023-04-02T06:59:19.844Z,204.56
2023-04-02T07:00:19.839Z,200.47
2023-04-02T07:01:19.868Z,203.14
2023-04-02T07:02:19.845Z,205.15
2023-04-02T07:03:19.849Z,205.50
2023-04-02T07:04:20.634Z,205.35
2023-04-02T07:05:19.925Z,208.39
2023-04-02T07:06:20.591Z,205.67
2023-04-02T07:07:20.032Z,197.92
2023-04-02T07:08:20.106Z,180.34
2023-04-02T07:09:20.171Z,167.32
2023-04-02T07:10:20.212Z,157.11
2023-04-02T07:11:21.049Z,151.70
2023-04-02T07:12:20.305Z,148.98
2023-04-02T07:13:20.315Z,148.54
2023-04-02T07:14:20.295Z,149.01
2023-04-02T07:15:20.303Z,149.00
2023-04-02T07:16:20.364Z,149.61
2023-04-02T07:17:20.327Z,150.88
2023-04-02T07:18:20.303Z,149.73
2023-04-02T07:19:20.335Z,150.45
2023-04-02T07:20:21.099Z,150.71
2023-04-02T07:21:20.315Z,147.53
2023-04-02T07:22:20.303Z,147.27
2023-04-02T07:23:20.307Z,150.10
2023-04-02T07:24:20.297Z,151.50
2023-04-02T07:25:20.310Z,150.23
2023-04-02T07:26:20.308Z,150.48
2023-04-02T07:27:20.318Z,150.02
2023-04-02T07:28:22.006Z,139.36
2023-04-02T07:29:20.345Z,132.39
2023-04-02T07:30:20.352Z,132.87
2023-04-02T07:31:20.420Z,134.27
2023-04-02T07:32:20.367Z,131.14
2023-04-02T07:33:20.411Z,131.46
2023-04-02T07:34:20.465Z,131.48
2023-04-02T07:35:20.505Z,126.61
2023-04-02T07:36:20.601Z,123.19
2023-04-02T07:37:20.644Z,121.70
2023-04-02T07:38:20.705Z,120.62
2023-04-02T07:39:20.729Z,118.67
2023-04-02T07:40:20.780Z,108.73
2023-04-02T07:42:04.198Z,25.00
2023-04-02T07:43:04.169Z,25.00
2023-04-02T07:44:04.174Z,25.00
2023-04-02T07:45:06.091Z,25.00
2023-04-02T07:46:04.136Z,25.00
2023-04-02T07:47:04.240Z,0.00
2023-04-02T07:48:04.120Z,0.00
2023-04-02T07:49:04.068Z,0.00
2023-04-02T07:50:04.041Z,0.00
2023-04-02T07:51:04.012Z,0.00
2023-04-02T07:52:03.987Z,0.00
2023-04-02T07:53:03.971Z,0.00
2023-04-02T07:54:03.948Z,0.00
2023-04-02T07:55:03.892Z,0.00
2023-04-02T07:56:03.872Z,0.00
2023-04-02T07:57:03.913Z,0.00
2023-04-02T07:58:03.828Z,0.00
2023-04-02T07:59:03.813Z,0.00
2023-04-02T08:00:03.832Z,0.00
2023-04-02T08:01:03.885Z,0.00
2023-04-02T08:02:03.752Z,0.00
2023-04-02T08:03:03.851Z,0.00
2023-04-02T08:04:03.739Z,8.57
2023-04-02T08:05:03.699Z,49.12
2023-04-02T08:06:03.691Z,29.49
2023-04-02T08:07:04.376Z,25.00
2023-04-02T08:08:03.743Z,49.82
2023-04-02T08:09:03.703Z,58.34
2023-04-02T08:10:03.754Z,0.00
2023-04-02T08:11:03.737Z,0.00
2023-04-02T08:12:03.698Z,0.00
2023-04-02T08:13:03.681Z,0.00
2023-04-02T08:14:03.670Z,0.00
2023-04-02T08:15:03.652Z,0.00
2023-04-02T08:16:03.697Z,0.00
2023-04-02T08:17:03.660Z,0.00
2023-04-02T08:18:03.701Z,3.59
2023-04-02T08:19:03.658Z,9.50
2023-04-02T08:20:03.681Z,25.00
2023-04-02T08:21:03.686Z,10.07
2023-04-02T08:22:03.756Z,0.00
2023-04-02T08:23:03.771Z,21.02
2023-04-02T08:24:03.841Z,43.57
2023-04-02T08:25:03.813Z,24.04
2023-04-02T08:26:03.844Z,26.41
2023-04-02T08:27:03.864Z,41.63
2023-04-02T08:28:03.898Z,6.17
2023-04-02T08:29:03.984Z,0.00
2023-04-02T08:30:03.944Z,0.00
2023-04-02T08:31:04.041Z,42.63
2023-04-02T08:32:04.935Z,89.34
2023-04-02T08:33:04.033Z,95.41
2023-04-02T08:34:04.018Z,100.41
2023-04-02T08:35:04.049Z,38.03
2023-04-02T08:36:04.125Z,23.71
2023-04-02T08:37:04.045Z,25.00
2023-04-02T08:38:04.061Z,25.09
2023-04-02T08:39:04.087Z,26.04
2023-04-02T08:40:04.084Z,21.15
2023-04-02T08:41:04.117Z,48.53
2023-04-02T08:42:04.139Z,39.53
2023-04-02T08:43:04.168Z,33.17
2023-04-02T08:44:04.246Z,29.96
2023-04-02T08:45:13.713Z,38.92
2023-04-02T08:46:05.243Z,31.19
2023-04-02T08:47:04.204Z,42.36
2023-04-02T08:48:04.264Z,52.44
2023-04-02T08:49:04.257Z,70.53
2023-04-02T08:50:04.105Z,108.69
2023-04-02T08:51:04.903Z,80.23
2023-04-02T08:52:04.047Z,62.68
2023-04-02T08:53:04.019Z,62.72
2023-04-02T08:54:03.998Z,63.97
2023-04-02T08:55:03.952Z,70.41
2023-04-02T08:56:03.901Z,88.70
2023-04-02T08:57:03.909Z,90.74
2023-04-02T08:58:03.926Z,83.86
2023-04-02T08:59:03.875Z,75.27
2023-04-02T09:00:04.414Z,32.73
2023-04-02T09:01:03.749Z,19.71
2023-04-02T09:02:03.797Z,33.24
2023-04-02T09:03:03.731Z,63.41
2023-04-02T09:04:06.396Z,92.00
2023-04-02T09:05:05.416Z,71.16
2023-04-02T09:06:03.606Z,61.64
2023-04-02T09:07:03.547Z,62.08
2023-04-02T09:08:03.520Z,72.89
2023-04-02T09:09:03.528Z,57.56
2023-04-02T09:10:04.382Z,56.05
2023-04-02T09:11:03.425Z,49.36
2023-04-02T09:12:03.360Z,21.62
2023-04-02T09:13:03.319Z,21.58
2023-04-02T09:14:03.895Z,25.00
2023-04-02T09:15:03.886Z,31.14
2023-04-02T09:16:03.220Z,45.17
2023-04-02T09:17:03.150Z,57.13
2023-04-02T09:18:03.249Z,43.70
2023-04-02T09:19:03.099Z,0.00
2023-04-02T09:20:03.899Z,0.00
2023-04-02T09:21:02.996Z,0.00
2023-04-02T09:22:02.967Z,0.00
2023-04-02T09:23:02.929Z,0.00
2023-04-02T09:24:04.040Z,0.00
2023-04-02T09:25:02.882Z,0.00
2023-04-02T09:26:04.827Z,0.00
2023-04-02T09:27:02.856Z,0.00
2023-04-02T09:28:02.883Z,0.00
2023-04-02T09:29:02.816Z,0.00
2023-04-02T09:30:02.750Z,0.00
2023-04-02T09:31:03.328Z,0.00
2023-04-02T09:32:02.725Z,0.00
2023-04-02T09:33:03.505Z,0.00
2023-04-02T09:34:02.648Z,0.00
2023-04-02T09:35:05.639Z,0.00
2023-04-02T09:36:03.659Z,0.00
2023-04-02T09:37:02.581Z,0.00
2023-04-02T09:38:04.418Z,0.00
2023-04-02T09:39:02.530Z,0.00
2023-04-02T09:40:02.527Z,0.00
2023-04-02T09:41:02.495Z,0.00
2023-04-02T09:42:05.757Z,0.00
2023-04-02T09:43:02.465Z,0.00
2023-04-02T09:44:03.385Z,0.00
2023-04-02T09:45:02.438Z,0.00
2023-04-02T09:46:02.416Z,0.00
2023-04-02T09:47:02.400Z,0.00
2023-04-02T09:48:02.383Z,0.00
2023-04-02T09:49:02.363Z,0.00
2023-04-02T09:50:02.362Z,0.00
2023-04-02T09:51:02.338Z,0.00
2023-04-02T09:52:02.336Z,0.00
2023-04-02T09:53:02.261Z,0.00
2023-04-02T09:54:02.208Z,0.00
2023-04-02T09:55:02.206Z,0.00
2023-04-02T09:56:02.172Z,25.18
2023-04-02T09:57:02.203Z,21.48
2023-04-02T09:58:03.102Z,28.31
2023-04-02T09:59:02.077Z,50.24
2023-04-02T10:00:02.078Z,177.04
2023-04-02T10:01:03.975Z,229.94
2023-04-02T10:02:01.972Z,202.33
2023-04-02T10:03:02.033Z,190.08
2023-04-02T10:04:02.933Z,224.34
2023-04-02T10:05:01.964Z,257.78
2023-04-02T10:06:01.902Z,218.44
2023-04-02T10:07:01.849Z,187.67
2023-04-02T10:08:01.820Z,167.29
2023-04-02T10:09:01.782Z,151.70
2023-04-02T10:10:01.792Z,143.26
2023-04-02T10:11:01.718Z,201.97
2023-04-02T10:12:01.711Z,219.10
2023-04-02T10:13:03.429Z,143.35
2023-04-02T10:14:01.623Z,115.40
2023-04-02T10:15:01.655Z,114.52
2023-04-02T10:16:01.587Z,135.66
2023-04-02T10:17:01.623Z,128.06
2023-04-02T10:18:01.633Z,110.63
2023-04-02T10:19:01.602Z,77.69
2023-04-02T10:20:01.651Z,49.00
2023-04-02T10:21:01.600Z,65.34
2023-04-02T10:22:01.598Z,92.32
2023-04-02T10:23:01.588Z,250.00
2023-04-02T10:24:01.611Z,228.52
2023-04-02T10:25:01.680Z,149.00
2023-04-02T10:26:01.593Z,137.82
2023-04-02T10:27:02.538Z,90.58
2023-04-02T10:28:01.539Z,82.50
2023-04-02T10:29:01.446Z,78.70
2023-04-02T10:30:01.415Z,66.59
2023-04-02T10:31:01.413Z,59.97
2023-04-02T10:32:01.911Z,58.87
2023-04-02T10:33:01.332Z,79.17
2023-04-02T10:34:01.213Z,107.79
2023-04-02T10:35:01.184Z,116.09
2023-04-02T10:36:01.125Z,116.14
2023-04-02T10:37:01.067Z,119.86
2023-04-02T10:38:01.016Z,120.28
2023-04-02T10:39:00.957Z,68.44
2023-04-02T10:40:00.967Z,92.66
2023-04-02T10:41:00.878Z,74.57
2023-04-02T10:42:00.799Z,61.79
2023-04-02T10:43:00.744Z,21.85
2023-04-02T10:44:12.611Z,35.86
2023-04-02T10:45:01.849Z,15.22
2023-04-02T10:46:00.873Z,5.15
2023-04-02T10:47:00.832Z,0.00
2023-04-02T10:48:00.870Z,0.00
2023-04-02T10:49:00.828Z,0.00
2023-04-02T10:50:00.816Z,0.00
2023-04-02T10:51:01.491Z,0.00
2023-04-02T10:52:00.769Z,0.00
2023-04-02T10:53:00.744Z,17.66
2023-04-02T10:54:00.743Z,32.30
2023-04-02T10:55:00.734Z,47.63
2023-04-02T10:56:00.722Z,41.26
2023-04-02T10:57:00.673Z,26.19
2023-04-02T10:58:01.407Z,5.73
2023-04-02T10:59:00.653Z,21.63
2023-04-02T11:00:00.644Z,26.31
2023-04-02T11:01:00.702Z,48.87
2023-04-02T11:02:00.652Z,69.13
2023-04-02T11:03:01.621Z,57.60
2023-04-02T11:04:00.668Z,47.99
2023-04-02T11:05:01.997Z,33.43
2023-04-02T11:06:00.660Z,47.78
2023-04-02T11:07:13.196Z,33.89
2023-04-02T11:08:01.631Z,35.20
2023-04-02T11:09:00.743Z,40.22
2023-04-02T11:10:01.434Z,48.46
2023-04-02T11:11:01.402Z,56.27
2023-04-02T11:12:00.499Z,85.22
2023-04-02T11:13:01.425Z,95.28
2023-04-02T11:14:00.400Z,107.09
2023-04-02T11:15:00.401Z,132.56
2023-04-02T11:16:00.370Z,160.40
2023-04-02T11:17:01.036Z,195.60
2023-04-02T11:18:00.260Z,212.65
2023-04-02T11:19:00.128Z,221.37
2023-04-02T11:20:00.050Z,224.27
2023-04-02T11:21:00.009Z,236.23
2023-04-02T11:22:01.486Z,252.21
2023-04-02T11:23:02.433Z,270.81
2023-04-02T11:24:00.056Z,271.66
2023-04-02T11:25:00.052Z,275.12
2023-04-02T11:26:00.069Z,277.67
2023-04-02T11:27:00.073Z,290.38
2023-04-02T11:28:00.127Z,305.35
2023-04-02T11:29:00.142Z,306.06
2023-04-02T11:30:00.173Z,285.52
2023-04-02T11:31:00.150Z,279.27
2023-04-02T11:32:00.135Z,279.42
2023-04-02T11:33:00.163Z,276.42
2023-04-02T11:34:00.090Z,272.97
2023-04-02T11:35:06.526Z,270.31
2023-04-02T11:36:01.075Z,263.12
2023-04-02T11:36:59.974Z,267.75
2023-04-02T11:37:59.935Z,264.09
2023-04-02T11:39:14.752Z,271.76
2023-04-02T11:40:01.412Z,263.76
2023-04-02T11:40:59.879Z,251.65
2023-04-02T11:41:59.830Z,264.28
2023-04-02T11:42:59.915Z,284.54
2023-04-02T11:43:59.837Z,306.80
2023-04-02T11:44:59.756Z,295.89
2023-04-02T11:45:59.742Z,294.72
2023-04-02T11:46:59.769Z,283.31
2023-04-02T11:48:00.562Z,283.66
2023-04-02T11:48:59.623Z,285.22
2023-04-02T11:49:59.602Z,284.19
2023-04-02T11:50:59.651Z,278.34
2023-04-02T11:52:11.550Z,280.08
2023-04-02T11:53:00.556Z,281.45
2023-04-02T11:54:00.609Z,277.60
2023-04-02T11:54:59.509Z,278.19
2023-04-02T11:55:59.941Z,274.87
2023-04-02T11:56:59.501Z,278.75
2023-04-02T11:57:59.452Z,270.32
2023-04-02T11:58:59.430Z,264.59
2023-04-02T11:59:59.410Z,259.10
2023-04-02T12:00:59.377Z,236.92
2023-04-02T12:01:59.370Z,237.52
2023-04-02T12:03:00.973Z,236.63
2023-04-02T12:03:59.305Z,243.03
2023-04-02T12:04:59.322Z,238.71
2023-04-02T12:05:59.286Z,227.28
2023-04-02T12:06:59.266Z,223.19
2023-04-02T12:07:59.945Z,232.28
2023-04-02T12:08:59.324Z,238.76
2023-04-02T12:09:59.271Z,235.96
2023-04-02T12:10:59.338Z,245.36
2023-04-02T12:11:59.297Z,239.43
2023-04-02T12:12:59.280Z,240.28
2023-04-02T12:13:59.329Z,235.07
2023-04-02T12:14:59.309Z,239.94
2023-04-02T12:15:59.459Z,234.50
2023-04-02T12:16:59.315Z,239.86
2023-04-02T12:17:59.321Z,249.38
2023-04-02T12:18:59.325Z,254.23
2023-04-02T12:19:59.943Z,258.37
2023-04-02T12:20:59.448Z,248.83
2023-04-02T12:21:59.385Z,244.15
2023-04-02T12:22:59.370Z,246.17
2023-04-02T12:23:59.400Z,240.52
2023-04-02T12:24:59.411Z,250.22
2023-04-02T12:25:59.447Z,247.48
2023-04-02T12:26:59.473Z,252.82
2023-04-02T12:27:59.510Z,264.48
2023-04-02T12:28:59.514Z,268.50
2023-04-02T12:29:59.539Z,267.18
2023-04-02T12:30:59.622Z,262.52
2023-04-02T12:31:59.660Z,262.78
2023-04-02T12:32:59.721Z,260.59
2023-04-02T12:33:59.716Z,258.24
2023-04-02T12:34:59.767Z,260.31
2023-04-02T12:35:59.861Z,266.13
2023-04-02T12:36:59.801Z,267.48
2023-04-02T12:38:00.560Z,260.07